createdAt,value
2019-05-22T00:01:07.764Z,11.20
2019-05-22T00:03:38.620Z,11.20
2019-05-22T00:06:09.405Z,11.20
2019-05-22T00:08:40.225Z,11.20
2019-05-22T00:11:11.011Z,11.10
2019-05-22T00:13:40.158Z,11.10
2019-05-22T00:16:09.387Z,11.10
2019-05-22T00:18:39.900Z,11.10
2019-05-22T00:21:10.078Z,11.10
2019-05-22T00:23:40.591Z,11.10
2019-05-22T00:26:11.107Z,11.20
2019-05-22T00:28:40.579Z,11.20
2019-05-22T00:31:11.123Z,11.20
2019-05-22T00:33:41.324Z,11.20
2019-05-22T00:36:11.194Z,11.20
2019-05-22T00:38:41.867Z,11.10
2019-05-22T00:41:11.906Z,11.10
2019-05-22T00:43:44.632Z,11.10
2019-05-22T00:46:15.481Z,11.10
2019-05-22T00:48:46.185Z,11.20
2019-05-22T00:51:29.138Z,11.20
2019-05-22T00:54:00.011Z,11.10
2019-05-22T00:56:37.161Z,11.10
2019-05-22T00:59:21.645Z,11.10
2019-05-22T01:02:09.667Z,11.10
2019-05-22T01:04:42.222Z,11.10
2019-05-22T01:07:17.139Z,11.10
2019-05-22T01:09:48.437Z,11.10
2019-05-22T01:12:32.914Z,11.00
2019-05-22T01:15:04.938Z,11.00
2019-05-22T01:17:36.041Z,11.00
2019-05-22T01:20:06.983Z,11.00
2019-05-22T01:22:37.092Z,11.00
2019-05-22T01:25:06.841Z,11.10
2019-05-22T01:27:36.671Z,11.10
2019-05-22T01:30:08.357Z,11.20
2019-05-22T01:32:44.912Z,11.20
2019-05-22T01:35:14.190Z,11.20
2019-05-22T01:37:44.468Z,11.10
2019-05-22T01:40:36.771Z,11.10
2019-05-22T01:43:08.763Z,11.10
2019-05-22T01:45:40.005Z,11.00
2019-05-22T01:48:12.587Z,11.00
2019-05-22T01:50:48.612Z,11.10
2019-05-22T01:53:22.205Z,11.10
2019-05-22T01:55:53.018Z,11.10
2019-05-22T01:58:23.971Z,11.10
2019-05-22T02:00:55.577Z,11.10
2019-05-22T02:03:25.220Z,11.10
2019-05-22T02:05:55.105Z,11.10
2019-05-22T02:08:26.110Z,11.20
2019-05-22T02:10:58.084Z,11.10
2019-05-22T02:13:33.354Z,11.10
2019-05-22T02:16:02.617Z,11.10
2019-05-22T02:18:33.550Z,11.10
2019-05-22T02:21:04.004Z,11.10
2019-05-22T02:23:33.886Z,11.10
2019-05-22T02:26:04.894Z,11.10
2019-05-22T02:28:36.148Z,11.10
2019-05-22T02:31:07.106Z,11.10
2019-05-22T02:33:38.256Z,11.10
2019-05-22T02:36:07.702Z,11.20
2019-05-22T02:38:37.357Z,11.20
2019-05-22T02:41:08.249Z,11.10
2019-05-22T02:43:37.497Z,11.20
2019-05-22T02:46:08.217Z,11.10
2019-05-22T02:48:37.358Z,11.20
2019-05-22T02:51:07.172Z,11.20
2019-05-22T02:53:36.359Z,11.10
2019-05-22T02:56:07.231Z,11.10
2019-05-22T02:58:37.383Z,11.10
2019-05-22T03:01:07.682Z,11.10
2019-05-22T03:03:37.539Z,11.20
2019-05-22T03:06:12.290Z,11.20
2019-05-22T03:09:00.962Z,11.10
2019-05-22T03:11:35.312Z,11.10
2019-05-22T03:14:07.602Z,11.10
2019-05-22T03:16:48.208Z,11.10
2019-05-22T03:19:28.372Z,11.10
2019-05-22T03:21:57.621Z,11.10
2019-05-22T03:24:26.804Z,11.20
2019-05-22T03:26:57.007Z,11.20
2019-05-22T03:29:30.320Z,11.20
2019-05-22T03:31:59.840Z,11.20
2019-05-22T03:34:29.028Z,11.20
2019-05-22T03:36:58.186Z,11.20
2019-05-22T03:39:27.746Z,11.10
2019-05-22T03:41:57.334Z,11.10
2019-05-22T03:44:28.374Z,11.20
2019-05-22T03:46:59.598Z,11.20
2019-05-22T03:49:31.041Z,11.30
2019-05-22T03:52:01.306Z,11.30
2019-05-22T03:54:30.699Z,11.30
2019-05-22T03:56:59.894Z,11.30
2019-05-22T03:59:29.093Z,11.30
2019-05-22T04:01:58.267Z,11.30
2019-05-22T04:04:35.652Z,11.30
2019-05-22T04:07:06.739Z,11.30
2019-05-22T04:09:36.955Z,11.20
2019-05-22T04:12:06.518Z,11.20
2019-05-22T04:14:37.437Z,11.20
2019-05-22T04:17:07.982Z,11.30
2019-05-22T04:19:49.288Z,11.30
2019-05-22T04:22:10.002Z,11.20
2019-05-22T04:24:42.428Z,11.20
2019-05-22T04:27:12.770Z,11.30
2019-05-22T04:29:42.220Z,11.30
2019-05-22T04:32:29.013Z,11.30
2019-05-22T04:34:58.832Z,11.30
2019-05-22T04:37:29.469Z,11.30
2019-05-22T04:40:25.545Z,11.30
2019-05-22T04:42:56.123Z,11.30
2019-05-22T04:45:26.776Z,11.30
2019-05-22T04:47:58.599Z,11.30
2019-05-22T04:50:29.093Z,11.30
2019-05-22T04:52:59.862Z,11.30
2019-05-22T04:55:30.210Z,11.30
2019-05-22T04:58:11.211Z,11.30
2019-05-22T05:00:40.957Z,11.30
2019-05-22T05:03:10.852Z,11.30
2019-05-22T05:05:41.698Z,11.30
2019-05-22T05:08:14.303Z,11.40
2019-05-22T05:10:47.896Z,11.40
2019-05-22T05:13:17.550Z,11.40
2019-05-22T05:15:46.784Z,11.40
2019-05-22T05:18:16.133Z,11.50
2019-05-22T05:20:45.283Z,11.60
2019-05-22T05:23:14.467Z,11.60
2019-05-22T05:25:47.887Z,11.60
2019-05-22T05:28:17.134Z,11.60
2019-05-22T05:30:46.294Z,11.50
2019-05-22T05:33:15.462Z,11.60
2019-05-22T05:35:44.626Z,11.60
2019-05-22T05:38:13.997Z,11.60
2019-05-22T05:40:43.181Z,11.70
2019-05-22T05:43:13.220Z,11.70
2019-05-22T05:45:43.396Z,11.70
2019-05-22T05:48:15.582Z,11.70
2019-05-22T05:51:07.278Z,11.70
2019-05-22T05:54:06.962Z,11.70
2019-05-22T05:56:37.462Z,11.60
2019-05-22T05:59:08.511Z,11.70
2019-05-22T06:01:39.732Z,11.70
2019-05-22T06:04:09.088Z,11.80
2019-05-22T06:06:44.465Z,11.80
2019-05-22T06:09:18.072Z,11.90
2019-05-22T06:11:48.987Z,11.90
2019-05-22T06:14:25.326Z,11.80
2019-05-22T06:17:38.734Z,11.90
2019-05-22T06:20:12.716Z,11.90
2019-05-22T06:22:42.710Z,11.90
2019-05-22T06:25:12.532Z,11.90
2019-05-22T06:27:43.538Z,12.00
2019-05-22T06:30:16.418Z,12.00
2019-05-22T06:32:57.984Z,12.00
2019-05-22T06:35:31.921Z,11.90
2019-05-22T06:38:19.723Z,11.90
2019-05-22T06:40:48.926Z,12.00
2019-05-22T06:43:28.876Z,12.00
2019-05-22T06:45:58.088Z,12.00
2019-05-22T06:48:27.327Z,12.00
2019-05-22T06:50:56.775Z,12.10
2019-05-22T06:53:26.321Z,12.10
2019-05-22T06:55:59.224Z,12.10
2019-05-22T06:58:28.643Z,12.20
2019-05-22T07:00:58.125Z,12.30
2019-05-22T07:03:27.952Z,12.30
2019-05-22T07:05:57.794Z,12.30
2019-05-22T07:08:27.318Z,12.40
2019-05-22T07:10:56.585Z,12.40
2019-05-22T07:13:25.793Z,12.50
2019-05-22T07:15:56.069Z,12.60
2019-05-22T07:18:26.897Z,12.70
2019-05-22T07:20:56.764Z,12.80
2019-05-22T07:23:27.769Z,12.60
2019-05-22T07:25:57.548Z,12.60
2019-05-22T07:28:27.853Z,12.60
2019-05-22T07:30:57.021Z,12.60
2019-05-22T07:33:26.261Z,12.70
2019-05-22T07:36:15.845Z,12.50
2019-05-22T07:38:26.947Z,12.50
2019-05-22T07:40:56.149Z,12.50
2019-05-22T07:43:25.636Z,12.50
2019-05-22T07:45:55.443Z,12.60
2019-05-22T07:48:26.570Z,12.60
2019-05-22T07:50:56.906Z,12.50
2019-05-22T07:53:26.813Z,12.60
2019-05-22T07:55:57.708Z,12.70
2019-05-22T07:58:28.389Z,13.00
2019-05-22T08:00:59.320Z,13.20
2019-05-22T08:03:31.670Z,13.40
2019-05-22T08:06:01.352Z,13.40
2019-05-22T08:08:32.736Z,13.40
2019-05-22T08:11:01.964Z,13.50
2019-05-22T08:13:32.203Z,13.50
2019-05-22T08:16:01.733Z,13.50
2019-05-22T08:18:32.863Z,13.70
2019-05-22T08:21:02.243Z,13.90
2019-05-22T08:23:31.473Z,14.20
2019-05-22T08:26:00.651Z,14.30
2019-05-22T08:28:31.816Z,14.30
2019-05-22T08:31:01.611Z,14.20
2019-05-22T08:33:32.383Z,14.00
2019-05-22T08:36:05.675Z,13.70
2019-05-22T08:38:35.234Z,13.50
2019-05-22T08:41:06.975Z,13.40
2019-05-22T08:43:56.054Z,13.40
2019-05-22T08:46:07.360Z,13.70
2019-05-22T08:48:39.008Z,13.90
2019-05-22T08:51:08.796Z,14.10
2019-05-22T08:53:47.356Z,14.20
2019-05-22T08:56:10.392Z,14.20
2019-05-22T08:58:39.703Z,14.10
2019-05-22T09:01:10.458Z,14.10
2019-05-22T09:03:40.317Z,14.60
2019-05-22T09:06:09.641Z,14.80
2019-05-22T09:08:39.044Z,15.30
2019-05-22T09:11:08.482Z,15.70
2019-05-22T09:13:38.049Z,15.50
2019-05-22T09:16:08.977Z,15.40
2019-05-22T09:18:38.330Z,15.30
2019-05-22T09:21:07.762Z,15.50
2019-05-22T09:23:36.942Z,15.70
2019-05-22T09:26:06.366Z,15.80
2019-05-22T09:28:35.535Z,15.70
2019-05-22T09:31:05.718Z,15.50
2019-05-22T09:33:36.238Z,15.60
2019-05-22T09:36:06.907Z,15.30
2019-05-22T09:38:36.139Z,14.90
2019-05-22T09:41:05.426Z,14.80
2019-05-22T09:43:34.765Z,14.70
2019-05-22T09:46:04.742Z,14.60
2019-05-22T09:48:34.499Z,14.40
2019-05-22T09:51:03.845Z,14.30
2019-05-22T09:53:34.956Z,14.30
2019-05-22T09:56:04.694Z,14.40
2019-05-22T09:58:34.163Z,14.30
2019-05-22T10:01:03.398Z,14.30
2019-05-22T10:03:32.968Z,14.00
2019-05-22T10:06:02.600Z,13.80
2019-05-22T10:08:32.005Z,13.70
2019-05-22T10:11:01.460Z,13.70
2019-05-22T10:13:32.208Z,13.70
2019-05-22T10:16:01.586Z,13.60
2019-05-22T10:18:30.927Z,13.70
2019-05-22T10:21:00.233Z,13.80
2019-05-22T10:23:30.540Z,14.30
2019-05-22T10:25:59.757Z,15.00
2019-05-22T10:28:29.083Z,15.70
2019-05-22T10:30:59.118Z,15.80
2019-05-22T10:33:29.077Z,15.80
2019-05-22T10:35:59.549Z,16.10
2019-05-22T10:38:28.957Z,16.40
2019-05-22T10:40:59.536Z,16.20
2019-05-22T10:43:29.409Z,16.10
2019-05-22T10:45:58.704Z,15.90
2019-05-22T10:48:28.028Z,15.80
2019-05-22T10:50:57.250Z,15.50
2019-05-22T10:53:33.642Z,15.30
2019-05-22T10:55:57.358Z,15.50
2019-05-22T10:58:26.531Z,15.40
2019-05-22T11:00:55.773Z,15.20
2019-05-22T11:03:25.037Z,15.10
2019-05-22T11:06:06.409Z,14.90
2019-05-22T11:08:30.402Z,14.70
2019-05-22T11:10:57.303Z,14.70
2019-05-22T11:13:27.240Z,14.70
2019-05-22T11:15:58.345Z,14.60
2019-05-22T11:18:27.715Z,14.60
2019-05-22T11:20:56.962Z,14.60
2019-05-22T11:23:26.882Z,14.60
2019-05-22T11:25:56.164Z,14.80
2019-05-22T11:28:27.915Z,14.80
2019-05-22T11:30:58.116Z,14.60
2019-05-22T11:33:27.298Z,14.50
2019-05-22T11:35:56.538Z,14.30
2019-05-22T11:38:25.758Z,14.20
2019-05-22T11:40:54.912Z,14.30
2019-05-22T11:43:24.145Z,14.40
2019-05-22T11:45:53.599Z,14.80
2019-05-22T11:48:22.849Z,14.80
2019-05-22T11:50:52.925Z,15.00
2019-05-22T11:53:22.126Z,15.30
2019-05-22T11:55:52.185Z,15.60
2019-05-22T11:58:21.850Z,16.00
2019-05-22T12:00:51.118Z,16.50
2019-05-22T12:03:20.768Z,16.80
2019-05-22T12:05:50.556Z,16.70
2019-05-22T12:08:19.845Z,16.60
2019-05-22T12:10:49.313Z,16.60
2019-05-22T12:13:18.719Z,16.60
2019-05-22T12:15:47.917Z,16.80
2019-05-22T12:18:17.605Z,16.90
2019-05-22T12:20:46.781Z,16.70
2019-05-22T12:23:16.083Z,16.80
2019-05-22T12:25:45.337Z,16.20
2019-05-22T12:28:14.772Z,16.10
2019-05-22T12:30:43.923Z,16.00
2019-05-22T12:33:14.320Z,16.20
2019-05-22T12:35:43.933Z,16.40
2019-05-22T12:38:14.552Z,16.80
2019-05-22T12:40:46.554Z,17.00
2019-05-22T12:43:16.071Z,16.80
2019-05-22T12:45:45.298Z,16.60
2019-05-22T12:48:14.645Z,16.30
2019-05-22T12:50:44.886Z,16.20
2019-05-22T12:53:15.327Z,16.40
2019-05-22T12:55:44.478Z,17.10
2019-05-22T12:58:13.720Z,17.40
2019-05-22T13:00:42.916Z,17.30
2019-05-22T13:03:12.707Z,16.80
2019-05-22T13:05:41.914Z,16.30
2019-05-22T13:08:11.420Z,16.40
2019-05-22T13:10:40.615Z,16.90
2019-05-22T13:13:09.785Z,17.00
2019-05-22T13:15:39.318Z,17.40
2019-05-22T13:18:09.943Z,17.50
2019-05-22T13:20:43.217Z,17.40
2019-05-22T13:23:11.642Z,17.70
2019-05-22T13:25:41.070Z,17.60
2019-05-22T13:28:12.368Z,17.60
2019-05-22T13:30:42.818Z,17.70
2019-05-22T13:33:15.933Z,17.80
2019-05-22T13:35:45.569Z,18.10
2019-05-22T13:38:15.429Z,18.00
2019-05-22T13:40:45.300Z,17.60
2019-05-22T13:43:14.477Z,17.40
2019-05-22T13:45:44.075Z,17.40
2019-05-22T13:48:13.327Z,17.20
2019-05-22T13:50:42.767Z,17.30
2019-05-22T13:53:13.027Z,17.30
2019-05-22T13:55:42.519Z,17.60
2019-05-22T13:58:11.762Z,17.60
2019-05-22T14:00:40.969Z,17.60
2019-05-22T14:03:10.240Z,17.70
2019-05-22T14:05:39.895Z,17.50
2019-05-22T14:08:09.394Z,17.40
2019-05-22T14:10:38.917Z,17.30
2019-05-22T14:13:08.769Z,17.50
2019-05-22T14:15:50.359Z,17.40
2019-05-22T14:18:08.866Z,17.20
2019-05-22T14:20:38.138Z,16.60
2019-05-22T14:23:07.402Z,16.30
2019-05-22T14:25:36.823Z,16.20
2019-05-22T14:28:07.162Z,16.30
2019-05-22T14:30:36.809Z,16.40
2019-05-22T14:33:05.967Z,16.40
2019-05-22T14:35:47.590Z,16.60
2019-05-22T14:38:08.138Z,16.90
2019-05-22T14:40:37.889Z,17.10
2019-05-22T14:43:07.489Z,17.20
2019-05-22T14:45:37.743Z,17.40
2019-05-22T14:48:06.891Z,17.70
2019-05-22T14:50:36.070Z,17.80
2019-05-22T14:53:05.263Z,17.50
2019-05-22T14:55:34.760Z,17.70
2019-05-22T14:58:04.894Z,17.60
2019-05-22T15:00:34.400Z,17.60
2019-05-22T15:03:03.709Z,17.90
2019-05-22T15:05:32.986Z,17.90
2019-05-22T15:08:02.157Z,17.90
2019-05-22T15:10:32.091Z,18.00
2019-05-22T15:13:01.399Z,18.10
2019-05-22T15:15:31.681Z,17.90
2019-05-22T15:18:00.963Z,17.80
2019-05-22T15:20:32.659Z,17.70
2019-05-22T15:23:02.071Z,17.30
2019-05-22T15:25:31.938Z,16.90
2019-05-22T15:28:01.339Z,16.60
2019-05-22T15:30:31.033Z,16.50
2019-05-22T15:33:00.194Z,16.60
2019-05-22T15:35:29.445Z,16.70
2019-05-22T15:37:59.143Z,16.80
2019-05-22T15:40:28.306Z,16.80
2019-05-22T15:42:57.667Z,16.70
2019-05-22T15:45:27.476Z,16.60
2019-05-22T15:48:00.878Z,16.50
2019-05-22T15:50:36.013Z,16.30
2019-05-22T15:53:11.908Z,16.40
2019-05-22T15:55:41.390Z,16.40
2019-05-22T15:58:11.991Z,16.40
2019-05-22T16:00:42.900Z,16.30
2019-05-22T16:03:17.811Z,16.30
2019-05-22T16:05:48.147Z,16.10
2019-05-22T16:08:17.646Z,16.30
2019-05-22T16:10:48.453Z,16.40
2019-05-22T16:13:20.239Z,16.50
2019-05-22T16:15:51.857Z,16.50
2019-05-22T16:18:24.325Z,16.20
2019-05-22T16:20:55.027Z,16.10
2019-05-22T16:23:24.576Z,16.00
2019-05-22T16:25:54.073Z,15.90
2019-05-22T16:28:24.880Z,16.00
2019-05-22T16:30:54.907Z,16.00
2019-05-22T16:33:25.013Z,16.00
2019-05-22T16:35:54.591Z,16.20
2019-05-22T16:38:23.908Z,16.30
2019-05-22T16:40:53.387Z,16.10
2019-05-22T16:43:22.703Z,16.00
2019-05-22T16:45:52.007Z,15.90
2019-05-22T16:48:28.933Z,15.80
2019-05-22T16:50:52.660Z,15.90
2019-05-22T16:53:23.080Z,16.00
2019-05-22T16:55:55.014Z,16.10
2019-05-22T16:58:24.531Z,16.10
2019-05-22T17:00:56.656Z,16.20
2019-05-22T17:03:25.971Z,16.30
2019-05-22T17:05:55.182Z,16.30
2019-05-22T17:08:25.728Z,16.20
2019-05-22T17:10:57.299Z,16.10
2019-05-22T17:13:28.034Z,16.20
2019-05-22T17:15:57.759Z,16.10
2019-05-22T17:18:45.537Z,15.90
2019-05-22T17:20:59.708Z,15.90
2019-05-22T17:23:29.067Z,15.90
2019-05-22T17:25:58.741Z,15.80
2019-05-22T17:28:27.994Z,15.80
2019-05-22T17:30:57.179Z,15.80
2019-05-22T17:33:26.982Z,15.70
2019-05-22T17:35:56.750Z,15.70
2019-05-22T17:38:26.324Z,15.80
2019-05-22T17:40:57.107Z,15.80
2019-05-22T17:43:26.520Z,15.90
2019-05-22T17:45:55.758Z,16.00
2019-05-22T17:48:25.792Z,16.00
2019-05-22T17:50:55.173Z,16.00
2019-05-22T17:53:24.551Z,15.90
2019-05-22T17:55:53.725Z,15.80
2019-05-22T17:58:27.160Z,15.60
2019-05-22T18:00:54.394Z,15.50
2019-05-22T18:03:24.544Z,15.30
2019-05-22T18:05:53.836Z,15.20
2019-05-22T18:08:24.010Z,15.10
2019-05-22T18:10:53.454Z,15.10
2019-05-22T18:13:22.954Z,15.00
2019-05-22T18:15:52.258Z,15.00
2019-05-22T18:18:21.650Z,14.90
2019-05-22T18:20:50.954Z,14.70
2019-05-22T18:23:20.499Z,14.70
2019-05-22T18:25:49.824Z,14.70
2019-05-22T18:28:19.133Z,14.60
2019-05-22T18:30:48.550Z,14.60
2019-05-22T18:33:17.813Z,14.60
2019-05-22T18:35:47.403Z,14.60
2019-05-22T18:38:16.573Z,14.60
2019-05-22T18:40:47.765Z,14.60
2019-05-22T18:43:18.949Z,14.50
2019-05-22T18:45:47.855Z,14.60
2019-05-22T18:48:17.191Z,14.50
2019-05-22T18:50:46.532Z,14.50
2019-05-22T18:53:15.949Z,14.40
2019-05-22T18:55:45.288Z,14.40
2019-05-22T18:58:14.713Z,14.40
2019-05-22T19:00:43.967Z,14.30
2019-05-22T19:03:13.913Z,14.30
2019-05-22T19:08:15.159Z,14.40
2019-05-22T19:10:44.387Z,14.30
2019-05-22T19:13:14.621Z,14.30
2019-05-22T19:15:44.341Z,14.30
2019-05-22T19:18:13.760Z,14.30
2019-05-22T19:20:43.815Z,14.20
2019-05-22T19:23:13.077Z,14.10
2019-05-22T19:25:42.420Z,14.10
2019-05-22T19:28:11.730Z,14.10
2019-05-22T19:30:41.219Z,14.00
2019-05-22T19:33:14.661Z,14.00
2019-05-22T19:35:42.484Z,14.00
2019-05-22T19:38:12.947Z,14.00
2019-05-22T19:40:42.255Z,14.00
2019-05-22T19:43:11.880Z,14.00
2019-05-22T19:45:41.256Z,14.00
2019-05-22T19:48:11.416Z,13.90
2019-05-22T19:50:41.030Z,13.80
2019-05-22T19:53:18.869Z,13.80
2019-05-22T19:55:43.888Z,13.60
2019-05-22T19:58:13.421Z,13.60
2019-05-22T20:00:43.007Z,13.50
2019-05-22T20:03:14.237Z,13.50
2019-05-22T20:05:44.624Z,13.50
2019-05-22T20:08:14.108Z,13.30
2019-05-22T20:10:43.351Z,13.30
2019-05-22T20:13:12.742Z,13.10
2019-05-22T20:15:42.292Z,13.00
2019-05-22T20:18:11.623Z,12.90
2019-05-22T20:20:41.108Z,12.80
2019-05-22T20:23:10.368Z,12.70
2019-05-22T20:25:52.437Z,12.60
2019-05-22T20:28:21.995Z,12.50
2019-05-22T20:30:51.207Z,12.40
2019-05-22T20:33:20.697Z,12.30
2019-05-22T20:35:50.286Z,12.20
2019-05-22T20:38:19.590Z,12.20
2019-05-22T20:40:49.306Z,12.10
2019-05-22T20:43:18.650Z,12.00
2019-05-22T20:45:47.884Z,12.00
2019-05-22T20:48:24.577Z,12.00
2019-05-22T20:50:55.857Z,12.00
2019-05-22T20:53:25.049Z,11.90
2019-05-22T20:55:54.512Z,11.80
2019-05-22T20:58:23.914Z,11.80
2019-05-22T21:00:53.297Z,11.80
2019-05-22T21:03:23.666Z,11.70
2019-05-22T21:05:54.196Z,11.70
2019-05-22T21:08:24.451Z,11.70
2019-05-22T21:10:56.174Z,11.60
2019-05-22T21:13:26.237Z,11.60
2019-05-22T21:15:55.919Z,11.60
2019-05-22T21:18:29.490Z,11.60
2019-05-22T21:20:58.646Z,11.50
2019-05-22T21:23:29.589Z,11.40
2019-05-22T21:25:58.933Z,11.30
2019-05-22T21:28:28.197Z,11.30
2019-05-22T21:30:57.601Z,11.20
2019-05-22T21:33:26.788Z,11.20
2019-05-22T21:35:55.965Z,11.10
2019-05-22T21:38:26.216Z,11.10
2019-05-22T21:40:55.745Z,11.00
2019-05-22T21:43:25.197Z,10.90
2019-05-22T21:45:54.404Z,10.90
2019-05-22T21:48:23.631Z,10.90
2019-05-22T21:50:52.806Z,10.90
2019-05-22T21:53:22.045Z,10.80
2019-05-22T21:56:03.660Z,10.80
2019-05-22T21:58:22.522Z,10.80
2019-05-22T22:00:56.613Z,10.80
2019-05-22T22:03:38.734Z,10.70
2019-05-22T22:06:08.186Z,10.70
2019-05-22T22:08:37.409Z,10.70
2019-05-22T22:11:08.274Z,10.70
2019-05-22T22:13:38.119Z,10.70
2019-05-22T22:16:07.944Z,10.70
2019-05-22T22:18:38.851Z,10.60
2019-05-22T22:21:09.590Z,10.60
2019-05-22T22:23:40.159Z,10.70
2019-05-22T22:26:24.904Z,10.60
2019-05-22T22:28:41.787Z,10.50
2019-05-22T22:31:13.019Z,10.50
2019-05-22T22:33:42.355Z,10.50
2019-05-22T22:36:11.503Z,10.50
2019-05-22T22:38:42.391Z,10.50
2019-05-22T22:41:12.205Z,10.40
2019-05-22T22:43:43.155Z,10.40
2019-05-22T22:46:19.889Z,10.40
2019-05-22T22:48:50.758Z,10.40
2019-05-22T22:51:20.298Z,10.30
2019-05-22T22:53:50.204Z,10.20
2019-05-22T22:56:19.445Z,10.20
2019-05-22T22:58:48.604Z,10.20
2019-05-22T23:01:25.571Z,10.20
2019-05-22T23:03:55.086Z,10.20
2019-05-22T23:06:24.250Z,10.20
2019-05-22T23:08:53.489Z,10.20
2019-05-22T23:11:22.675Z,10.30
2019-05-22T23:13:52.725Z,10.20
2019-05-22T23:16:23.471Z,10.30
2019-05-22T23:19:15.822Z,10.30
2019-05-22T23:21:45.405Z,10.30
2019-05-22T23:24:16.703Z,10.30
2019-05-22T23:26:45.915Z,10.30
2019-05-22T23:29:15.646Z,10.40
2019-05-22T23:31:45.243Z,10.50
2019-05-22T23:34:14.884Z,10.50
2019-05-22T23:36:44.316Z,10.60
2019-05-22T23:39:15.119Z,10.60
2019-05-22T23:41:45.164Z,10.60
2019-05-22T23:44:14.530Z,10.50
2019-05-22T23:46:44.353Z,10.40
2019-05-22T23:49:13.842Z,10.30
2019-05-22T23:51:43.581Z,10.30
2019-05-22T23:54:13.213Z,10.20
2019-05-22T23:56:44.068Z,10.30
2019-05-22T23:59:13.947Z,10.20
